CCM7804 LFKJ-EGLL
Flight info
| Callsign | CCM7804 |
|---|---|
| Flight time | 2h 20m |
| Altitude | 36000 |
| Route | TORTU DCT KUKEV DCT BANKO L615 DJL/N0458F340 L615 LUREN DCT ALESO |
| Aircraft | A320/M-SDE3FGHIRWY/LB1 |
Departure
| Time | 2026-04-22 08:23 |
|---|---|
| Airport | Ajaccio Napoléon Bonaparte airport (LFKJ) |
Arrival
| Time | 2026-04-22 10:43 |
|---|---|
| Airport | London Heathrow Airport (EGLL) |
| Time | Latitude | Longitude | Altitude | Speed | Heading |
|---|---|---|---|---|---|
| 2026-04-22 08:08 | 41.92009 | 8.79612 | 26 ft | 0 kts | 346° |
| 2026-04-22 08:17 | 41.92028 | 8.79616 | 31 ft | 6 kts | 38° |
| 2026-04-22 08:17 | 41.92021 | 8.79674 | 30 ft | 8 kts | 78° |
| 2026-04-22 08:17 | 41.92059 | 8.79709 | 30 ft | 6 kts | 25° |
| 2026-04-22 08:17 | 41.92112 | 8.79741 | 29 ft | 14 kts | 25° |
| 2026-04-22 08:18 | 41.92198 | 8.79795 | 28 ft | 13 kts | 25° |
| 2026-04-22 08:18 | 41.92273 | 8.79840 | 30 ft | 11 kts | 24° |
| 2026-04-22 08:18 | 41.92337 | 8.79879 | 27 ft | 9 kts | 25° |
| 2026-04-22 08:18 | 41.92394 | 8.79915 | 30 ft | 9 kts | 25° |
| 2026-04-22 08:19 | 41.92488 | 8.79974 | 29 ft | 18 kts | 25° |
| 2026-04-22 08:19 | 41.92600 | 8.80045 | 30 ft | 18 kts | 25° |
| 2026-04-22 08:19 | 41.92712 | 8.80116 | 29 ft | 18 kts | 26° |
| 2026-04-22 08:19 | 41.92807 | 8.80197 | 27 ft | 15 kts | 40° |
| 2026-04-22 08:20 | 41.92875 | 8.80288 | 27 ft | 13 kts | 46° |
| 2026-04-22 08:20 | 41.92925 | 8.80360 | 29 ft | 9 kts | 46° |
| 2026-04-22 08:20 | 41.92957 | 8.80415 | 31 ft | 8 kts | 65° |
| 2026-04-22 08:20 | 41.92961 | 8.80475 | 31 ft | 5 kts | 97° |
| 2026-04-22 08:21 | 41.92954 | 8.80513 | 31 ft | 3 kts | 106° |
| 2026-04-22 08:21 | 41.92946 | 8.80539 | 32 ft | 5 kts | 118° |
| 2026-04-22 08:21 | 41.92915 | 8.80567 | 31 ft | 5 kts | 171° |
| 2026-04-22 08:21 | 41.92897 | 8.80561 | 31 ft | 0 kts | 201° |
| 2026-04-22 08:22 | 41.92893 | 8.80559 | 31 ft | 11 kts | 203° |
| 2026-04-22 08:22 | 41.92563 | 8.80354 | 27 ft | 89 kts | 205° |
| 2026-04-22 08:22 | 41.91814 | 8.79887 | 20 ft | 145 kts | 205° |
| 2026-04-22 08:22 | 41.90818 | 8.79234 | 327 ft | 161 kts | 213° |
| 2026-04-22 08:23 | 41.90018 | 8.78216 | 976 ft | 162 kts | 236° |
| 2026-04-22 08:23 | 41.89446 | 8.76886 | 1554 ft | 169 kts | 243° |
| 2026-04-22 08:23 | 41.88890 | 8.75446 | 2029 ft | 179 kts | 243° |
| 2026-04-22 08:23 | 41.88275 | 8.73873 | 2295 ft | 202 kts | 242° |
| 2026-04-22 08:24 | 41.87585 | 8.72123 | 2601 ft | 221 kts | 242° |
| 2026-04-22 08:24 | 41.86843 | 8.70255 | 3169 ft | 230 kts | 242° |
| 2026-04-22 08:24 | 41.86082 | 8.68351 | 3925 ft | 233 kts | 243° |
| 2026-04-22 08:24 | 41.85674 | 8.66276 | 4658 ft | 234 kts | 277° |
| 2026-04-22 08:25 | 41.86296 | 8.64303 | 5376 ft | 234 kts | 310° |
| 2026-04-22 08:25 | 41.87476 | 8.62806 | 6199 ft | 234 kts | 321° |
| 2026-04-22 08:25 | 41.88781 | 8.61504 | 6998 ft | 234 kts | 323° |
| 2026-04-22 08:25 | 41.90200 | 8.60440 | 7753 ft | 237 kts | 341° |
| 2026-04-22 08:26 | 41.91854 | 8.60194 | 8484 ft | 246 kts | 1° |
| 2026-04-22 08:26 | 41.93590 | 8.60844 | 8787 ft | 276 kts | 22° |
| 2026-04-22 08:26 | 41.95334 | 8.62060 | 9368 ft | 286 kts | 23° |
| 2026-04-22 08:26 | 41.97115 | 8.63309 | 10092 ft | 291 kts | 22° |
| 2026-04-22 08:27 | 41.98977 | 8.64606 | 10363 ft | 313 kts | 22° |
| 2026-04-22 08:27 | 42.00988 | 8.65997 | 10538 ft | 337 kts | 22° |
| 2026-04-22 08:27 | 42.03141 | 8.67488 | 10692 ft | 359 kts | 23° |
| 2026-04-22 08:27 | 42.05425 | 8.69074 | 10814 ft | 380 kts | 23° |
| 2026-04-22 08:28 | 42.07825 | 8.70738 | 11042 ft | 395 kts | 23° |
| 2026-04-22 08:28 | 42.10251 | 8.72429 | 11554 ft | 400 kts | 23° |
| 2026-04-22 08:28 | 42.12722 | 8.74159 | 12235 ft | 402 kts | 23° |
| 2026-04-22 08:28 | 42.15214 | 8.75903 | 12880 ft | 405 kts | 22° |
| 2026-04-22 08:29 | 42.17721 | 8.77658 | 13455 ft | 408 kts | 22° |
| 2026-04-22 08:29 | 42.20249 | 8.79427 | 13985 ft | 410 kts | 22° |
| 2026-04-22 08:29 | 42.22802 | 8.81177 | 14513 ft | 412 kts | 19° |
| 2026-04-22 08:29 | 42.25480 | 8.82490 | 15023 ft | 408 kts | 10° |
| 2026-04-22 08:30 | 42.28260 | 8.83185 | 15500 ft | 405 kts | 1° |
| 2026-04-22 08:30 | 42.31075 | 8.83495 | 15977 ft | 407 kts | 359° |
| 2026-04-22 08:30 | 42.33908 | 8.83808 | 16484 ft | 410 kts | 360° |
| 2026-04-22 08:30 | 42.36760 | 8.84130 | 16967 ft | 413 kts | 359° |
| 2026-04-22 08:31 | 42.39634 | 8.84457 | 17383 ft | 417 kts | 360° |
| 2026-04-22 08:31 | 42.42543 | 8.84788 | 17703 ft | 421 kts | 360° |
| 2026-04-22 08:31 | 42.48382 | 8.85453 | 18588 ft | 423 kts | 359° |
| 2026-04-22 08:32 | 42.51323 | 8.85783 | 18966 ft | 425 kts | 359° |
| 2026-04-22 08:32 | 42.54277 | 8.86115 | 19310 ft | 427 kts | 359° |
| 2026-04-22 08:32 | 42.57245 | 8.86450 | 19656 ft | 429 kts | 359° |
| 2026-04-22 08:32 | 42.60224 | 8.86788 | 19973 ft | 431 kts | 359° |
| 2026-04-22 08:33 | 42.63218 | 8.87130 | 20269 ft | 433 kts | 359° |
| 2026-04-22 08:33 | 42.66222 | 8.87474 | 20567 ft | 434 kts | 359° |
| 2026-04-22 08:33 | 42.69243 | 8.87816 | 20879 ft | 436 kts | 359° |
| 2026-04-22 08:33 | 42.72267 | 8.88157 | 21183 ft | 437 kts | 359° |
| 2026-04-22 08:34 | 42.75300 | 8.88502 | 21459 ft | 438 kts | 359° |
| 2026-04-22 08:34 | 42.78347 | 8.88851 | 21731 ft | 440 kts | 359° |
| 2026-04-22 08:34 | 42.81403 | 8.89201 | 21988 ft | 442 kts | 359° |
| 2026-04-22 08:34 | 42.84473 | 8.89552 | 22240 ft | 443 kts | 359° |
| 2026-04-22 08:35 | 42.87551 | 8.89905 | 22487 ft | 445 kts | 359° |
| 2026-04-22 08:35 | 42.90642 | 8.90261 | 22775 ft | 446 kts | 359° |
| 2026-04-22 08:35 | 42.93737 | 8.90617 | 23019 ft | 447 kts | 359° |
| 2026-04-22 08:35 | 42.96838 | 8.90972 | 23239 ft | 448 kts | 359° |
| 2026-04-22 08:36 | 42.99949 | 8.91328 | 23436 ft | 449 kts | 359° |
| 2026-04-22 08:36 | 43.03068 | 8.91684 | 23637 ft | 451 kts | 359° |
| 2026-04-22 08:36 | 43.06194 | 8.92046 | 23848 ft | 451 kts | 359° |
| 2026-04-22 08:36 | 43.09314 | 8.92412 | 24120 ft | 449 kts | 359° |
| 2026-04-22 08:37 | 43.12420 | 8.92776 | 24401 ft | 447 kts | 359° |
| 2026-04-22 08:37 | 43.15514 | 8.93140 | 24676 ft | 446 kts | 359° |
| 2026-04-22 08:37 | 43.18601 | 8.93502 | 24951 ft | 444 kts | 359° |
| 2026-04-22 08:37 | 43.21635 | 8.93853 | 25213 ft | 443 kts | 359° |
| 2026-04-22 08:38 | 43.24703 | 8.94204 | 25488 ft | 442 kts | 359° |
| 2026-04-22 08:38 | 43.27764 | 8.94554 | 25766 ft | 441 kts | 359° |
| 2026-04-22 08:38 | 43.30810 | 8.94905 | 26117 ft | 438 kts | 358° |
| 2026-04-22 08:38 | 43.33837 | 8.95253 | 26455 ft | 435 kts | 358° |
| 2026-04-22 08:39 | 43.36824 | 8.95224 | 26769 ft | 425 kts | 348° |
| 2026-04-22 08:39 | 43.39705 | 8.94500 | 27061 ft | 417 kts | 339° |
| 2026-04-22 08:39 | 43.42407 | 8.93144 | 27356 ft | 411 kts | 331° |
| 2026-04-22 08:39 | 43.44926 | 8.91329 | 27656 ft | 408 kts | 328° |
| 2026-04-22 08:40 | 43.47421 | 8.89479 | 27968 ft | 407 kts | 328° |
| 2026-04-22 08:40 | 43.49906 | 8.87632 | 28314 ft | 405 kts | 328° |
| 2026-04-22 08:40 | 43.52377 | 8.85795 | 28652 ft | 403 kts | 328° |
| 2026-04-22 08:40 | 43.54842 | 8.83961 | 28991 ft | 402 kts | 328° |
| 2026-04-22 08:41 | 43.57297 | 8.82136 | 29321 ft | 400 kts | 328° |
| 2026-04-22 08:41 | 43.59743 | 8.80318 | 29641 ft | 399 kts | 328° |
| 2026-04-22 08:41 | 43.62183 | 8.78504 | 29963 ft | 398 kts | 328° |
| 2026-04-22 08:41 | 43.64614 | 8.76692 | 30278 ft | 396 kts | 328° |
| 2026-04-22 08:42 | 43.67035 | 8.74883 | 30549 ft | 395 kts | 328° |
| 2026-04-22 08:42 | 43.69450 | 8.73078 | 30811 ft | 394 kts | 328° |
| 2026-04-22 08:42 | 43.71856 | 8.71277 | 31102 ft | 392 kts | 328° |
| 2026-04-22 08:42 | 43.74254 | 8.69478 | 31337 ft | 393 kts | 328° |
| 2026-04-22 08:43 | 43.76654 | 8.67675 | 31584 ft | 392 kts | 328° |
| 2026-04-22 08:43 | 43.79016 | 8.65899 | 31855 ft | 391 kts | 328° |
| 2026-04-22 08:43 | 43.81405 | 8.64107 | 32114 ft | 390 kts | 328° |
| 2026-04-22 08:43 | 43.83788 | 8.62319 | 32380 ft | 389 kts | 327° |
| 2026-04-22 08:44 | 43.86164 | 8.60529 | 32651 ft | 388 kts | 327° |
| 2026-04-22 08:44 | 43.88530 | 8.58743 | 32920 ft | 387 kts | 327° |
| 2026-04-22 08:44 | 43.90894 | 8.56960 | 33222 ft | 386 kts | 327° |
| 2026-04-22 08:44 | 43.93243 | 8.55190 | 33559 ft | 383 kts | 327° |
| 2026-04-22 08:45 | 43.95579 | 8.53429 | 33863 ft | 381 kts | 327° |
| 2026-04-22 08:45 | 43.97903 | 8.51674 | 34138 ft | 380 kts | 327° |
| 2026-04-22 08:45 | 44.00220 | 8.49918 | 34361 ft | 379 kts | 327° |
| 2026-04-22 08:45 | 44.02536 | 8.48162 | 34559 ft | 380 kts | 327° |
| 2026-04-22 08:46 | 44.04073 | 8.46997 | 34675 ft | 380 kts | 327° |
| 2026-04-22 08:46 | 44.06394 | 8.45237 | 34859 ft | 380 kts | 327° |
| 2026-04-22 08:46 | 44.08720 | 8.43476 | 35017 ft | 381 kts | 327° |
| 2026-04-22 08:46 | 44.11052 | 8.41711 | 35196 ft | 382 kts | 327° |
| 2026-04-22 08:47 | 44.13383 | 8.39942 | 35394 ft | 381 kts | 327° |
| 2026-04-22 08:47 | 44.15710 | 8.38167 | 35593 ft | 381 kts | 327° |
| 2026-04-22 08:47 | 44.18036 | 8.36387 | 35746 ft | 381 kts | 327° |
| 2026-04-22 08:47 | 44.20363 | 8.34609 | 35893 ft | 382 kts | 327° |
| 2026-04-22 08:48 | 44.22692 | 8.32830 | 36036 ft | 382 kts | 328° |
| 2026-04-22 08:48 | 44.27390 | 8.29243 | 36118 ft | 389 kts | 328° |
| 2026-04-22 08:49 | 44.32173 | 8.25581 | 36167 ft | 394 kts | 328° |
| 2026-04-22 08:49 | 44.36980 | 8.21882 | 36145 ft | 395 kts | 328° |
| 2026-04-22 08:50 | 44.41797 | 8.18182 | 36161 ft | 395 kts | 328° |
| 2026-04-22 08:50 | 44.46615 | 8.14479 | 36159 ft | 395 kts | 328° |
| 2026-04-22 08:51 | 44.51432 | 8.10765 | 36162 ft | 395 kts | 328° |
| 2026-04-22 08:51 | 44.56214 | 8.07071 | 36165 ft | 395 kts | 328° |
| 2026-04-22 08:52 | 44.61025 | 8.03339 | 36170 ft | 395 kts | 328° |
| 2026-04-22 08:52 | 44.65834 | 7.99601 | 36171 ft | 395 kts | 328° |
| 2026-04-22 08:53 | 44.70645 | 7.95862 | 36150 ft | 396 kts | 328° |
| 2026-04-22 08:53 | 44.75469 | 7.92115 | 36170 ft | 396 kts | 328° |
| 2026-04-22 08:54 | 44.80289 | 7.88356 | 36175 ft | 396 kts | 328° |
| 2026-04-22 08:54 | 44.85108 | 7.84587 | 36170 ft | 396 kts | 328° |
| 2026-04-22 08:55 | 44.89925 | 7.80811 | 36165 ft | 396 kts | 328° |
| 2026-04-22 08:55 | 44.94736 | 7.77028 | 36186 ft | 396 kts | 328° |
| 2026-04-22 08:56 | 44.99543 | 7.73243 | 36175 ft | 395 kts | 328° |
| 2026-04-22 08:56 | 45.04347 | 7.69456 | 36197 ft | 395 kts | 328° |
| 2026-04-22 08:57 | 45.09151 | 7.65668 | 36180 ft | 396 kts | 328° |
| 2026-04-22 08:57 | 45.13960 | 7.61863 | 36205 ft | 396 kts | 328° |
| 2026-04-22 08:58 | 45.18781 | 7.58058 | 36192 ft | 397 kts | 328° |
| 2026-04-22 08:58 | 45.23597 | 7.54234 | 36198 ft | 397 kts | 328° |
| 2026-04-22 08:59 | 45.28417 | 7.50387 | 36198 ft | 397 kts | 328° |
| 2026-04-22 08:59 | 45.33238 | 7.46541 | 36164 ft | 397 kts | 328° |
| 2026-04-22 09:00 | 45.38050 | 7.42693 | 36192 ft | 396 kts | 328° |
| 2026-04-22 09:00 | 45.42860 | 7.38849 | 36187 ft | 397 kts | 328° |
| 2026-04-22 09:01 | 45.47659 | 7.35006 | 36176 ft | 395 kts | 328° |
| 2026-04-22 09:01 | 45.52459 | 7.31158 | 36171 ft | 397 kts | 328° |
| 2026-04-22 09:02 | 45.57253 | 7.27291 | 36195 ft | 395 kts | 328° |
| 2026-04-22 09:02 | 45.62031 | 7.23426 | 36177 ft | 394 kts | 328° |
| 2026-04-22 09:03 | 45.66791 | 7.19527 | 36152 ft | 393 kts | 326° |
| 2026-04-22 09:03 | 45.71403 | 7.15356 | 36153 ft | 392 kts | 324° |
| 2026-04-22 09:04 | 45.75953 | 7.11075 | 36179 ft | 391 kts | 324° |
| 2026-04-22 09:04 | 45.80511 | 7.06823 | 36134 ft | 390 kts | 324° |
| 2026-04-22 09:05 | 45.85073 | 7.02619 | 36133 ft | 390 kts | 324° |
| 2026-04-22 09:05 | 45.89625 | 6.98429 | 36116 ft | 389 kts | 324° |
| 2026-04-22 09:06 | 45.94177 | 6.94229 | 36096 ft | 389 kts | 324° |
| 2026-04-22 09:06 | 45.98726 | 6.90021 | 36093 ft | 389 kts | 324° |
| 2026-04-22 09:07 | 46.03265 | 6.85794 | 36082 ft | 388 kts | 324° |
| 2026-04-22 09:07 | 46.07796 | 6.81557 | 36076 ft | 389 kts | 324° |
| 2026-04-22 09:08 | 46.12331 | 6.77324 | 36072 ft | 388 kts | 324° |
| 2026-04-22 09:08 | 46.16864 | 6.73092 | 36044 ft | 388 kts | 324° |
| 2026-04-22 09:09 | 46.21389 | 6.68847 | 36081 ft | 388 kts | 324° |
| 2026-04-22 09:09 | 46.25926 | 6.64592 | 36083 ft | 389 kts | 324° |
| 2026-04-22 09:10 | 46.30431 | 6.60357 | 36092 ft | 389 kts | 324° |
| 2026-04-22 09:10 | 46.34966 | 6.56071 | 36110 ft | 389 kts | 324° |
| 2026-04-22 09:11 | 46.39508 | 6.51775 | 36139 ft | 390 kts | 324° |
| 2026-04-22 09:11 | 46.44056 | 6.47472 | 36128 ft | 391 kts | 324° |
| 2026-04-22 09:12 | 46.48252 | 6.42543 | 36097 ft | 388 kts | 310° |
| 2026-04-22 09:12 | 46.51812 | 6.36630 | 36108 ft | 389 kts | 310° |
| 2026-04-22 09:13 | 46.55391 | 6.30712 | 36112 ft | 390 kts | 310° |
| 2026-04-22 09:13 | 46.58969 | 6.24779 | 36110 ft | 391 kts | 310° |
| 2026-04-22 09:14 | 46.62549 | 6.18827 | 36117 ft | 391 kts | 310° |
| 2026-04-22 09:14 | 46.66124 | 6.12867 | 36102 ft | 391 kts | 310° |
| 2026-04-22 09:15 | 46.69700 | 6.06913 | 36080 ft | 391 kts | 310° |
| 2026-04-22 09:15 | 46.73289 | 6.00962 | 36078 ft | 391 kts | 310° |
| 2026-04-22 09:16 | 46.76865 | 5.94997 | 36078 ft | 390 kts | 310° |
| 2026-04-22 09:16 | 46.80426 | 5.89009 | 36078 ft | 390 kts | 310° |
| 2026-04-22 09:17 | 46.83984 | 5.83012 | 36094 ft | 391 kts | 310° |
| 2026-04-22 09:17 | 46.87544 | 5.76995 | 36085 ft | 392 kts | 310° |
| 2026-04-22 09:18 | 46.91116 | 5.70972 | 36056 ft | 392 kts | 310° |
| 2026-04-22 09:18 | 46.94700 | 5.64944 | 36070 ft | 393 kts | 310° |
| 2026-04-22 09:19 | 46.98275 | 5.58902 | 36093 ft | 393 kts | 310° |
| 2026-04-22 09:19 | 47.01820 | 5.52887 | 36100 ft | 393 kts | 310° |
| 2026-04-22 09:20 | 47.05415 | 5.46785 | 36129 ft | 393 kts | 310° |
| 2026-04-22 09:20 | 47.08989 | 5.40715 | 36113 ft | 394 kts | 310° |
| 2026-04-22 09:21 | 47.12538 | 5.34659 | 36093 ft | 394 kts | 310° |
| 2026-04-22 09:21 | 47.16119 | 5.28546 | 36106 ft | 395 kts | 310° |
| 2026-04-22 09:22 | 47.19700 | 5.22409 | 36119 ft | 396 kts | 310° |
| 2026-04-22 09:22 | 47.23282 | 5.16255 | 36127 ft | 396 kts | 310° |
| 2026-04-22 09:23 | 47.26864 | 5.10088 | 36134 ft | 396 kts | 310° |
| 2026-04-22 09:23 | 47.30595 | 5.04096 | 36157 ft | 397 kts | 313° |
| 2026-04-22 09:24 | 47.34470 | 4.98282 | 36152 ft | 397 kts | 314° |
| 2026-04-22 09:24 | 47.38336 | 4.92445 | 36125 ft | 398 kts | 313° |
| 2026-04-22 09:25 | 47.42168 | 4.86549 | 36129 ft | 398 kts | 313° |
| 2026-04-22 09:25 | 47.45986 | 4.80617 | 36138 ft | 399 kts | 313° |
| 2026-04-22 09:26 | 47.49808 | 4.74670 | 36163 ft | 399 kts | 313° |
| 2026-04-22 09:26 | 47.53636 | 4.68717 | 36157 ft | 399 kts | 313° |
| 2026-04-22 09:27 | 47.57458 | 4.62756 | 36152 ft | 399 kts | 313° |
| 2026-04-22 09:27 | 47.61247 | 4.56825 | 36122 ft | 399 kts | 313° |
| 2026-04-22 09:28 | 47.65070 | 4.50848 | 36126 ft | 400 kts | 313° |
| 2026-04-22 09:28 | 47.68895 | 4.44859 | 36129 ft | 400 kts | 313° |
| 2026-04-22 09:29 | 47.72720 | 4.38846 | 36154 ft | 400 kts | 313° |
| 2026-04-22 09:29 | 47.76535 | 4.32818 | 36153 ft | 400 kts | 313° |
| 2026-04-22 09:30 | 47.80351 | 4.26786 | 36150 ft | 400 kts | 313° |
| 2026-04-22 09:30 | 47.84165 | 4.20755 | 36130 ft | 400 kts | 312° |
| 2026-04-22 09:31 | 47.87980 | 4.14703 | 36124 ft | 401 kts | 312° |
| 2026-04-22 09:31 | 47.91789 | 4.08635 | 36131 ft | 401 kts | 312° |
| 2026-04-22 09:32 | 47.95603 | 4.02550 | 36151 ft | 401 kts | 312° |
| 2026-04-22 09:32 | 47.99406 | 3.96456 | 36159 ft | 401 kts | 312° |
| 2026-04-22 09:33 | 48.02648 | 3.91511 | 36158 ft | 402 kts | 319° |
| 2026-04-22 09:33 | 48.07263 | 3.86779 | 36161 ft | 403 kts | 324° |
| 2026-04-22 09:34 | 48.11938 | 3.82146 | 36167 ft | 403 kts | 324° |
| 2026-04-22 09:34 | 48.16606 | 3.77488 | 36183 ft | 403 kts | 324° |
| 2026-04-22 09:35 | 48.23615 | 3.70478 | 36160 ft | 404 kts | 324° |
| 2026-04-22 09:35 | 48.28294 | 3.65795 | 36171 ft | 404 kts | 324° |
| 2026-04-22 09:36 | 48.32969 | 3.61106 | 36166 ft | 404 kts | 324° |
| 2026-04-22 09:36 | 48.37643 | 3.56398 | 36176 ft | 404 kts | 324° |
| 2026-04-22 09:37 | 48.42325 | 3.51683 | 36181 ft | 406 kts | 324° |
| 2026-04-22 09:37 | 48.47014 | 3.46948 | 36179 ft | 406 kts | 324° |
| 2026-04-22 09:38 | 48.51711 | 3.42197 | 36171 ft | 407 kts | 324° |
| 2026-04-22 09:38 | 48.56410 | 3.37433 | 36178 ft | 407 kts | 324° |
| 2026-04-22 09:39 | 48.61111 | 3.32655 | 36208 ft | 408 kts | 324° |
| 2026-04-22 09:39 | 48.65822 | 3.27858 | 36203 ft | 409 kts | 324° |
| 2026-04-22 09:40 | 48.70533 | 3.23044 | 36206 ft | 409 kts | 324° |
| 2026-04-22 09:40 | 48.75249 | 3.18216 | 36205 ft | 409 kts | 324° |
| 2026-04-22 09:41 | 48.79965 | 3.13379 | 36210 ft | 409 kts | 324° |
| 2026-04-22 09:41 | 48.84680 | 3.08541 | 36210 ft | 409 kts | 324° |
| 2026-04-22 09:42 | 48.89389 | 3.03675 | 36184 ft | 409 kts | 324° |
| 2026-04-22 09:42 | 48.94097 | 2.98805 | 36199 ft | 410 kts | 324° |
| 2026-04-22 09:43 | 48.98812 | 2.93925 | 36211 ft | 410 kts | 324° |
| 2026-04-22 09:43 | 49.03525 | 2.89039 | 36213 ft | 410 kts | 323° |
| 2026-04-22 09:44 | 49.08230 | 2.84138 | 36230 ft | 410 kts | 324° |
| 2026-04-22 09:44 | 49.12943 | 2.79221 | 36229 ft | 410 kts | 324° |
| 2026-04-22 09:45 | 49.17658 | 2.74296 | 36229 ft | 411 kts | 324° |
| 2026-04-22 09:45 | 49.22374 | 2.69364 | 36225 ft | 411 kts | 324° |
| 2026-04-22 09:46 | 49.27058 | 2.64449 | 36194 ft | 411 kts | 323° |
| 2026-04-22 09:46 | 49.31771 | 2.59484 | 36211 ft | 411 kts | 324° |
| 2026-04-22 09:47 | 49.36484 | 2.54501 | 36225 ft | 412 kts | 324° |
| 2026-04-22 09:47 | 49.41203 | 2.49517 | 36234 ft | 412 kts | 324° |
| 2026-04-22 09:48 | 49.45922 | 2.44521 | 36239 ft | 412 kts | 324° |
| 2026-04-22 09:48 | 49.50635 | 2.39505 | 36268 ft | 412 kts | 324° |
| 2026-04-22 09:49 | 49.55355 | 2.34477 | 36256 ft | 413 kts | 324° |
| 2026-04-22 09:49 | 49.60074 | 2.29440 | 36252 ft | 413 kts | 324° |
| 2026-04-22 09:50 | 49.64799 | 2.24386 | 36216 ft | 413 kts | 324° |
| 2026-04-22 09:50 | 49.69522 | 2.19319 | 36227 ft | 414 kts | 324° |
| 2026-04-22 09:51 | 49.74244 | 2.14237 | 36248 ft | 414 kts | 324° |
| 2026-04-22 09:51 | 49.78967 | 2.09138 | 36250 ft | 414 kts | 324° |
| 2026-04-22 09:52 | 49.83692 | 2.04030 | 36247 ft | 414 kts | 324° |
| 2026-04-22 09:52 | 49.88417 | 1.98912 | 36257 ft | 414 kts | 324° |
| 2026-04-22 09:53 | 49.93110 | 1.93822 | 36255 ft | 415 kts | 324° |
| 2026-04-22 09:53 | 49.97832 | 1.88676 | 36266 ft | 415 kts | 324° |
| 2026-04-22 09:54 | 50.02561 | 1.83521 | 36260 ft | 415 kts | 324° |
| 2026-04-22 09:54 | 50.07291 | 1.78347 | 36246 ft | 416 kts | 324° |
| 2026-04-22 09:55 | 50.12019 | 1.73156 | 36251 ft | 416 kts | 324° |
| 2026-04-22 09:55 | 50.16748 | 1.67950 | 36261 ft | 416 kts | 324° |
| 2026-04-22 09:56 | 50.21482 | 1.62742 | 36273 ft | 417 kts | 324° |
| 2026-04-22 09:56 | 50.26219 | 1.57507 | 36280 ft | 417 kts | 324° |
| 2026-04-22 09:57 | 50.30956 | 1.52253 | 36283 ft | 418 kts | 324° |
| 2026-04-22 09:57 | 50.35695 | 1.46992 | 36294 ft | 418 kts | 324° |
| 2026-04-22 09:58 | 50.40437 | 1.41717 | 36296 ft | 418 kts | 323° |
| 2026-04-22 09:58 | 50.45172 | 1.36425 | 36284 ft | 418 kts | 323° |
| 2026-04-22 09:59 | 50.49915 | 1.31114 | 36284 ft | 419 kts | 323° |
| 2026-04-22 09:59 | 50.54663 | 1.25796 | 36293 ft | 419 kts | 323° |
| 2026-04-22 10:00 | 50.59176 | 1.20032 | 36277 ft | 417 kts | 315° |
| 2026-04-22 10:00 | 50.61231 | 1.16799 | 35466 ft | 419 kts | 315° |
| 2026-04-22 10:00 | 50.63292 | 1.13539 | 34513 ft | 421 kts | 315° |
| 2026-04-22 10:01 | 50.65363 | 1.10260 | 33517 ft | 422 kts | 315° |
| 2026-04-22 10:01 | 50.67429 | 1.06978 | 32467 ft | 422 kts | 315° |
| 2026-04-22 10:01 | 50.69500 | 1.03682 | 31404 ft | 423 kts | 315° |
| 2026-04-22 10:01 | 50.71571 | 1.00386 | 30317 ft | 424 kts | 316° |
| 2026-04-22 10:02 | 50.73651 | 0.97081 | 28974 ft | 425 kts | 316° |
| 2026-04-22 10:02 | 50.75745 | 0.93753 | 27665 ft | 428 kts | 316° |
| 2026-04-22 10:02 | 50.77847 | 0.90408 | 26443 ft | 429 kts | 315° |
| 2026-04-22 10:02 | 50.79955 | 0.87053 | 25325 ft | 431 kts | 316° |
| 2026-04-22 10:03 | 50.82061 | 0.83682 | 24239 ft | 431 kts | 316° |
| 2026-04-22 10:03 | 50.84169 | 0.80300 | 23103 ft | 432 kts | 316° |
| 2026-04-22 10:03 | 50.86266 | 0.76935 | 22318 ft | 426 kts | 316° |
| 2026-04-22 10:03 | 50.88332 | 0.73619 | 21530 ft | 421 kts | 316° |
| 2026-04-22 10:04 | 50.90359 | 0.70374 | 20787 ft | 419 kts | 316° |
| 2026-04-22 10:04 | 50.92405 | 0.67096 | 20042 ft | 417 kts | 316° |
| 2026-04-22 10:04 | 50.94441 | 0.63825 | 19313 ft | 417 kts | 316° |
| 2026-04-22 10:04 | 50.96474 | 0.60542 | 18577 ft | 418 kts | 316° |
| 2026-04-22 10:05 | 50.98530 | 0.57221 | 17556 ft | 430 kts | 317° |
| 2026-04-22 10:05 | 51.00646 | 0.53802 | 16388 ft | 438 kts | 316° |
| 2026-04-22 10:05 | 51.02789 | 0.50328 | 15577 ft | 439 kts | 316° |
| 2026-04-22 10:05 | 51.04878 | 0.46925 | 15459 ft | 422 kts | 317° |
| 2026-04-22 10:06 | 51.06888 | 0.43644 | 15355 ft | 406 kts | 316° |
| 2026-04-22 10:06 | 51.08875 | 0.40489 | 15248 ft | 391 kts | 318° |
| 2026-04-22 10:06 | 51.10772 | 0.37585 | 15128 ft | 377 kts | 318° |
| 2026-04-22 10:06 | 51.12670 | 0.34730 | 15004 ft | 364 kts | 320° |
| 2026-04-22 10:07 | 51.14458 | 0.32046 | 14883 ft | 353 kts | 318° |
| 2026-04-22 10:07 | 51.16210 | 0.29399 | 14765 ft | 342 kts | 318° |
| 2026-04-22 10:07 | 51.17906 | 0.26827 | 14626 ft | 332 kts | 319° |
| 2026-04-22 10:07 | 51.19567 | 0.24296 | 14326 ft | 328 kts | 318° |
| 2026-04-22 10:08 | 51.21210 | 0.21781 | 13913 ft | 328 kts | 319° |
| 2026-04-22 10:08 | 51.22849 | 0.19262 | 13524 ft | 326 kts | 318° |
| 2026-04-22 10:08 | 51.24475 | 0.16757 | 13128 ft | 325 kts | 318° |
| 2026-04-22 10:08 | 51.26099 | 0.14253 | 12727 ft | 324 kts | 318° |
| 2026-04-22 10:09 | 51.27716 | 0.11752 | 12316 ft | 324 kts | 318° |
| 2026-04-22 10:09 | 51.29331 | 0.09256 | 11962 ft | 321 kts | 318° |
| 2026-04-22 10:09 | 51.30916 | 0.06812 | 11810 ft | 311 kts | 319° |
| 2026-04-22 10:09 | 51.32332 | 0.04268 | 11660 ft | 304 kts | 303° |
| 2026-04-22 10:10 | 51.33157 | 0.01227 | 11446 ft | 295 kts | 282° |
| 2026-04-22 10:10 | 51.33417 | -0.01984 | 11235 ft | 289 kts | 274° |
| 2026-04-22 10:10 | 51.33606 | -0.05163 | 10973 ft | 286 kts | 274° |
| 2026-04-22 10:10 | 51.33796 | -0.08323 | 10643 ft | 286 kts | 274° |
| 2026-04-22 10:11 | 51.33987 | -0.11481 | 10330 ft | 284 kts | 275° |
| 2026-04-22 10:11 | 51.34176 | -0.14622 | 9994 ft | 283 kts | 274° |
| 2026-04-22 10:11 | 51.34362 | -0.17747 | 9676 ft | 281 kts | 274° |
| 2026-04-22 10:11 | 51.34547 | -0.20855 | 9322 ft | 280 kts | 274° |
| 2026-04-22 10:12 | 51.34732 | -0.23956 | 8967 ft | 279 kts | 274° |
| 2026-04-22 10:12 | 51.34915 | -0.27036 | 8628 ft | 278 kts | 274° |
| 2026-04-22 10:12 | 51.35097 | -0.30116 | 8267 ft | 278 kts | 274° |
| 2026-04-22 10:12 | 51.35277 | -0.33189 | 7925 ft | 277 kts | 274° |
| 2026-04-22 10:13 | 51.35453 | -0.36249 | 7593 ft | 276 kts | 274° |
| 2026-04-22 10:13 | 51.35626 | -0.39291 | 7322 ft | 272 kts | 274° |
| 2026-04-22 10:13 | 51.35797 | -0.42288 | 7323 ft | 271 kts | 274° |
| 2026-04-22 10:13 | 51.35969 | -0.45294 | 7327 ft | 271 kts | 274° |
| 2026-04-22 10:14 | 51.36140 | -0.48296 | 7325 ft | 271 kts | 274° |
| 2026-04-22 10:14 | 51.36310 | -0.51295 | 7322 ft | 271 kts | 274° |
| 2026-04-22 10:14 | 51.36479 | -0.54291 | 7325 ft | 271 kts | 274° |
| 2026-04-22 10:14 | 51.36647 | -0.57293 | 7327 ft | 271 kts | 274° |
| 2026-04-22 10:15 | 51.36814 | -0.60299 | 7318 ft | 271 kts | 274° |
| 2026-04-22 10:15 | 51.36980 | -0.63305 | 7327 ft | 271 kts | 274° |
| 2026-04-22 10:15 | 51.37126 | -0.66313 | 7325 ft | 271 kts | 271° |
| 2026-04-22 10:15 | 51.37158 | -0.69331 | 7305 ft | 271 kts | 268° |
| 2026-04-22 10:16 | 51.37128 | -0.72351 | 6903 ft | 274 kts | 266° |
| 2026-04-22 10:16 | 51.37339 | -0.75444 | 6236 ft | 287 kts | 293° |
| 2026-04-22 10:16 | 51.38502 | -0.77823 | 5996 ft | 260 kts | 332° |
| 2026-04-22 10:16 | 51.40080 | -0.78742 | 5842 ft | 229 kts | 3° |
| 2026-04-22 10:17 | 51.41611 | -0.78845 | 5690 ft | 216 kts | 4° |
| 2026-04-22 10:17 | 51.43085 | -0.79432 | 5535 ft | 223 kts | 344° |
| 2026-04-22 10:17 | 51.44552 | -0.80013 | 5381 ft | 212 kts | 9° |
| 2026-04-22 10:17 | 51.46013 | -0.79931 | 5234 ft | 215 kts | 360° |
| 2026-04-22 10:18 | 51.46973 | -0.80405 | 5138 ft | 223 kts | 334° |
| 2026-04-22 10:18 | 51.48101 | -0.82154 | 5031 ft | 232 kts | 298° |
| 2026-04-22 10:18 | 51.48469 | -0.84624 | 5005 ft | 229 kts | 261° |
| 2026-04-22 10:18 | 51.48090 | -0.87057 | 5001 ft | 224 kts | 244° |
| 2026-04-22 10:19 | 51.47502 | -0.89362 | 4993 ft | 222 kts | 236° |
| 2026-04-22 10:19 | 51.46499 | -0.91070 | 4992 ft | 204 kts | 198° |
| 2026-04-22 10:19 | 51.45197 | -0.91459 | 4917 ft | 183 kts | 161° |
| 2026-04-22 10:19 | 51.44151 | -0.90536 | 4528 ft | 172 kts | 123° |
| 2026-04-22 10:20 | 51.43802 | -0.88725 | 4098 ft | 179 kts | 85° |
| 2026-04-22 10:20 | 51.44263 | -0.86898 | 3995 ft | 175 kts | 64° |
| 2026-04-22 10:20 | 51.44927 | -0.85281 | 4020 ft | 173 kts | 62° |
| 2026-04-22 10:20 | 51.45614 | -0.83715 | 4000 ft | 171 kts | 61° |
| 2026-04-22 10:21 | 51.46299 | -0.82161 | 3992 ft | 171 kts | 61° |
| 2026-04-22 10:21 | 51.46982 | -0.80599 | 3996 ft | 171 kts | 63° |
| 2026-04-22 10:21 | 51.47355 | -0.78858 | 3937 ft | 162 kts | 85° |
| 2026-04-22 10:21 | 51.47497 | -0.77078 | 3667 ft | 159 kts | 86° |
| 2026-04-22 10:22 | 51.47567 | -0.75327 | 3440 ft | 156 kts | 89° |
| 2026-04-22 10:22 | 51.47601 | -0.73627 | 3225 ft | 149 kts | 89° |
| 2026-04-22 10:22 | 51.47621 | -0.72039 | 3018 ft | 137 kts | 89° |
| 2026-04-22 10:22 | 51.47633 | -0.70543 | 2856 ft | 132 kts | 89° |
| 2026-04-22 10:23 | 51.47644 | -0.69099 | 2696 ft | 128 kts | 90° |
| 2026-04-22 10:23 | 51.47653 | -0.67682 | 2506 ft | 127 kts | 90° |
| 2026-04-22 10:23 | 51.47661 | -0.66266 | 2339 ft | 127 kts | 89° |
| 2026-04-22 10:23 | 51.47669 | -0.64854 | 2152 ft | 127 kts | 89° |
| 2026-04-22 10:24 | 51.47677 | -0.63443 | 1980 ft | 126 kts | 89° |
| 2026-04-22 10:24 | 51.47685 | -0.61969 | 1796 ft | 137 kts | 89° |
| 2026-04-22 10:24 | 51.47693 | -0.60429 | 1604 ft | 138 kts | 89° |
| 2026-04-22 10:24 | 51.47701 | -0.58877 | 1417 ft | 140 kts | 89° |
| 2026-04-22 10:25 | 51.47709 | -0.57333 | 1231 ft | 137 kts | 89° |
| 2026-04-22 10:25 | 51.47716 | -0.55795 | 1034 ft | 139 kts | 88° |
| 2026-04-22 10:25 | 51.47723 | -0.54296 | 843 ft | 130 kts | 89° |
| 2026-04-22 10:25 | 51.47730 | -0.52864 | 657 ft | 127 kts | 88° |
| 2026-04-22 10:26 | 51.47741 | -0.51462 | 479 ft | 126 kts | 90° |
| 2026-04-22 10:26 | 51.47741 | -0.50043 | 302 ft | 125 kts | 89° |
| 2026-04-22 10:26 | 51.47748 | -0.48656 | 144 ft | 123 kts | 86° |
| 2026-04-22 10:26 | 51.47758 | -0.47342 | 177 ft | 109 kts | 90° |
| 2026-04-22 10:27 | 51.47787 | -0.45937 | 627 ft | 139 kts | 86° |
| 2026-04-22 10:27 | 51.47878 | -0.44515 | 1492 ft | 117 kts | 85° |
| 2026-04-22 10:27 | 51.47922 | -0.43237 | 2049 ft | 120 kts | 83° |
| 2026-04-22 10:27 | 51.48404 | -0.42010 | 2257 ft | 155 kts | 37° |
| 2026-04-22 10:28 | 51.49568 | -0.41662 | 2544 ft | 193 kts | 356° |
| 2026-04-22 10:28 | 51.50901 | -0.42593 | 2959 ft | 223 kts | 334° |
| 2026-04-22 10:28 | 51.52236 | -0.43982 | 3585 ft | 233 kts | 332° |
| 2026-04-22 10:28 | 51.53608 | -0.45472 | 3941 ft | 241 kts | 331° |
| 2026-04-22 10:29 | 51.54994 | -0.46979 | 4009 ft | 241 kts | 331° |
| 2026-04-22 10:29 | 51.56385 | -0.48483 | 4009 ft | 241 kts | 331° |
| 2026-04-22 10:29 | 51.57780 | -0.49991 | 4001 ft | 241 kts | 331° |
| 2026-04-22 10:29 | 51.59173 | -0.51493 | 4011 ft | 242 kts | 330° |
| 2026-04-22 10:30 | 51.60569 | -0.52995 | 4006 ft | 241 kts | 331° |
| 2026-04-22 10:30 | 51.61964 | -0.54497 | 4009 ft | 241 kts | 331° |
| 2026-04-22 10:30 | 51.63358 | -0.56001 | 4009 ft | 241 kts | 331° |
| 2026-04-22 10:30 | 51.64754 | -0.57506 | 4015 ft | 242 kts | 331° |
| 2026-04-22 10:31 | 51.66151 | -0.59012 | 4012 ft | 242 kts | 331° |
| 2026-04-22 10:31 | 51.67547 | -0.60521 | 4015 ft | 242 kts | 331° |
| 2026-04-22 10:31 | 51.68893 | -0.62148 | 4012 ft | 245 kts | 315° |
| 2026-04-22 10:31 | 51.69698 | -0.64568 | 4011 ft | 249 kts | 281° |
| 2026-04-22 10:32 | 51.69629 | -0.67299 | 4014 ft | 243 kts | 246° |
| 2026-04-22 10:32 | 51.68783 | -0.69586 | 4009 ft | 237 kts | 225° |
| 2026-04-22 10:32 | 51.67703 | -0.71583 | 4011 ft | 236 kts | 221° |
| 2026-04-22 10:32 | 51.66596 | -0.73535 | 4010 ft | 236 kts | 222° |
| 2026-04-22 10:33 | 51.65488 | -0.75482 | 4015 ft | 237 kts | 221° |
| 2026-04-22 10:33 | 51.64370 | -0.77425 | 4004 ft | 236 kts | 221° |
| 2026-04-22 10:33 | 51.63254 | -0.79361 | 4004 ft | 236 kts | 221° |
| 2026-04-22 10:33 | 51.62136 | -0.81292 | 4004 ft | 236 kts | 221° |
| 2026-04-22 10:34 | 51.61012 | -0.83213 | 3999 ft | 236 kts | 221° |
| 2026-04-22 10:34 | 51.59870 | -0.85097 | 3994 ft | 233 kts | 212° |
| 2026-04-22 10:34 | 51.58471 | -0.86168 | 3994 ft | 219 kts | 186° |
| 2026-04-22 10:34 | 51.56994 | -0.86622 | 3668 ft | 216 kts | 181° |
| 2026-04-22 10:35 | 51.55496 | -0.86980 | 3332 ft | 217 kts | 181° |
| 2026-04-22 10:35 | 51.54001 | -0.87321 | 3034 ft | 216 kts | 181° |
| 2026-04-22 10:35 | 51.52517 | -0.87640 | 2994 ft | 217 kts | 181° |
| 2026-04-22 10:35 | 51.51020 | -0.87948 | 2996 ft | 217 kts | 181° |
| 2026-04-22 10:36 | 51.49539 | -0.88253 | 2996 ft | 218 kts | 180° |
| 2026-04-22 10:36 | 51.48032 | -0.88572 | 3002 ft | 219 kts | 181° |
| 2026-04-22 10:36 | 51.46521 | -0.88888 | 2996 ft | 219 kts | 181° |
| 2026-04-22 10:36 | 51.45038 | -0.88843 | 2990 ft | 209 kts | 155° |
| 2026-04-22 10:37 | 51.43908 | -0.87572 | 2996 ft | 196 kts | 120° |
| 2026-04-22 10:37 | 51.44035 | -0.83572 | 2997 ft | 196 kts | 57° |
| 2026-04-22 10:37 | 51.44925 | -0.81894 | 3000 ft | 198 kts | 52° |
| 2026-04-22 10:38 | 51.45873 | -0.80277 | 2997 ft | 200 kts | 51° |
| 2026-04-22 10:38 | 51.46831 | -0.78654 | 2998 ft | 200 kts | 51° |
| 2026-04-22 10:38 | 51.47785 | -0.77033 | 3000 ft | 199 kts | 51° |
| 2026-04-22 10:38 | 51.48732 | -0.75418 | 2997 ft | 199 kts | 53° |
| 2026-04-22 10:39 | 51.49361 | -0.73504 | 3006 ft | 194 kts | 79° |
| 2026-04-22 10:39 | 51.49270 | -0.71381 | 2919 ft | 196 kts | 113° |
| 2026-04-22 10:39 | 51.48564 | -0.69505 | 2688 ft | 196 kts | 117° |
| 2026-04-22 10:39 | 51.47980 | -0.67558 | 2459 ft | 191 kts | 104° |
| 2026-04-22 10:40 | 51.47756 | -0.65486 | 2217 ft | 188 kts | 94° |
| 2026-04-22 10:40 | 51.47701 | -0.63414 | 1966 ft | 182 kts | 90° |
| 2026-04-22 10:40 | 51.47695 | -0.61452 | 1743 ft | 169 kts | 89° |
| 2026-04-22 10:40 | 51.47700 | -0.59651 | 1515 ft | 154 kts | 89° |
| 2026-04-22 10:41 | 51.47706 | -0.58010 | 1311 ft | 138 kts | 89° |
| 2026-04-22 10:41 | 51.47713 | -0.56530 | 1118 ft | 128 kts | 88° |
| 2026-04-22 10:41 | 51.47719 | -0.55112 | 943 ft | 125 kts | 89° |
| 2026-04-22 10:41 | 51.47726 | -0.53716 | 775 ft | 125 kts | 89° |
| 2026-04-22 10:42 | 51.47733 | -0.52311 | 597 ft | 123 kts | 90° |
| 2026-04-22 10:42 | 51.47753 | -0.50921 | 441 ft | 128 kts | 90° |
| 2026-04-22 10:42 | 51.47749 | -0.49491 | 206 ft | 126 kts | 89° |
| 2026-04-22 10:42 | 51.47751 | -0.48105 | 111 ft | 123 kts | 90° |
| 2026-04-22 10:43 | 51.47758 | -0.46855 | 97 ft | 100 kts | 90° |
| 2026-04-22 10:43 | 51.47761 | -0.45947 | 85 ft | 58 kts | 90° |
| 2026-04-22 10:43 | 51.47761 | -0.45580 | 85 ft | 15 kts | 96° |
| 2026-04-22 10:43 | 51.47702 | -0.45465 | 86 ft | 12 kts | 174° |
| 2026-04-22 10:44 | 51.47654 | -0.45466 | 86 ft | 0 kts | 180° |
| 2026-04-22 10:45 | 51.47632 | -0.45463 | 86 ft | 7 kts | 171° |
| 2026-04-22 10:45 | 51.47598 | -0.45406 | 87 ft | 9 kts | 102° |
| 2026-04-22 10:46 | 51.47597 | -0.45291 | 86 ft | 11 kts | 90° |
| 2026-04-22 10:46 | 51.47597 | -0.45155 | 86 ft | 13 kts | 90° |
| 2026-04-22 10:46 | 51.47597 | -0.45009 | 86 ft | 13 kts | 90° |
| 2026-04-22 10:46 | 51.47600 | -0.44856 | 86 ft | 14 kts | 89° |
| 2026-04-22 10:47 | 51.47594 | -0.44694 | 90 ft | 15 kts | 111° |
| 2026-04-22 10:47 | 51.47507 | -0.44620 | 90 ft | 15 kts | 125° |
| 2026-04-22 10:47 | 51.47416 | -0.44559 | 86 ft | 16 kts | 179° |
| 2026-04-22 10:47 | 51.47298 | -0.44558 | 86 ft | 18 kts | 180° |
| 2026-04-22 10:48 | 51.47189 | -0.44557 | 86 ft | 15 kts | 179° |
| 2026-04-22 10:48 | 51.47098 | -0.44556 | 86 ft | 11 kts | 180° |
| 2026-04-22 10:48 | 51.47028 | -0.44556 | 86 ft | 8 kts | 180° |
| 2026-04-22 10:48 | 51.46979 | -0.44555 | 86 ft | 6 kts | 180° |
| 2026-04-22 10:49 | 51.46940 | -0.44555 | 86 ft | 5 kts | 180° |
| 2026-04-22 10:49 | 51.46908 | -0.44555 | 86 ft | 4 kts | 180° |
| 2026-04-22 10:49 | 51.46881 | -0.44555 | 86 ft | 4 kts | 180° |
| 2026-04-22 10:49 | 51.46859 | -0.44555 | 86 ft | 3 kts | 180° |
| 2026-04-22 10:50 | 51.46842 | -0.44555 | 86 ft | 2 kts | 180° |
| 2026-04-22 10:50 | 51.46823 | -0.44555 | 86 ft | 8 kts | 178° |
| 2026-04-22 10:50 | 51.46755 | -0.44608 | 88 ft | 13 kts | 249° |
| 2026-04-22 10:50 | 51.46751 | -0.44743 | 86 ft | 12 kts | 270° |
| 2026-04-22 10:51 | 51.46751 | -0.44865 | 86 ft | 10 kts | 270° |
| 2026-04-22 10:51 | 51.46781 | -0.44905 | 88 ft | 6 kts | 348° |
| 2026-04-22 10:51 | 51.46816 | -0.44913 | 87 ft | 3 kts | 353° |
| 2026-04-22 10:51 | 51.46828 | -0.44915 | 90 ft | 0 kts | 353° |